createdAt,value
2022-09-06T00:01:11.556Z,5.63
2022-09-06T00:04:15.540Z,3.95
2022-09-06T00:07:18.024Z,5.95
2022-09-06T00:10:20.777Z,5.93
2022-09-06T00:13:23.190Z,3.55
2022-09-06T00:16:30.155Z,4.57
2022-09-06T00:19:32.822Z,5.63
2022-09-06T00:22:37.109Z,4.60
2022-09-06T00:25:39.233Z,5.43
2022-09-06T00:28:42.188Z,4.38
2022-09-06T00:31:45.669Z,7.57
2022-09-06T00:34:48.201Z,5.40
2022-09-06T00:37:51.480Z,5.45
2022-09-06T00:43:56.906Z,3.22
2022-09-06T00:46:59.617Z,3.63
2022-09-06T00:50:03.230Z,5.40
2022-09-06T00:53:06.006Z,4.38
2022-09-06T00:56:08.251Z,3.15
2022-09-06T00:59:11.157Z,3.97
2022-09-06T01:02:13.462Z,4.10
2022-09-06T01:05:17.050Z,3.47
2022-09-06T01:08:31.341Z,6.50
2022-09-06T01:11:41.677Z,6.50
2022-09-06T01:14:56.016Z,4.43
2022-09-06T01:18:31.751Z,5.15
2022-09-06T01:21:40.163Z,2.63
2022-09-06T01:25:14.141Z,2.58
2022-09-06T01:28:37.681Z,2.67
2022-09-06T01:31:55.101Z,2.60
2022-09-06T01:35:32.277Z,3.92
2022-09-06T01:38:36.018Z,6.68
2022-09-06T01:41:38.191Z,3.03
2022-09-06T01:44:45.824Z,5.53
2022-09-06T01:47:56.761Z,4.38
2022-09-06T01:51:19.792Z,4.30
2022-09-06T01:54:24.900Z,4.00
2022-09-06T01:57:53.112Z,4.68
2022-09-06T02:01:04.994Z,1.80
2022-09-06T02:04:12.955Z,3.33
2022-09-06T02:07:26.715Z,3.72
2022-09-06T02:10:36.737Z,2.38
2022-09-06T02:13:45.597Z,3.83
2022-09-06T02:16:51.239Z,2.38
2022-09-06T02:20:02.639Z,2.70
2022-09-06T02:23:08.796Z,1.80
2022-09-06T02:26:27.680Z,5.63
2022-09-06T02:29:30.311Z,2.40
2022-09-06T02:32:37.635Z,5.00
2022-09-06T02:35:49.812Z,3.75
2022-09-06T02:38:51.954Z,2.28
2022-09-06T02:41:55.245Z,2.00
2022-09-06T02:44:58.321Z,2.10
2022-09-06T02:48:01.184Z,3.22
2022-09-06T02:51:07.447Z,6.70
2022-09-06T02:54:09.944Z,7.35
2022-09-06T02:57:12.840Z,10.60
2022-09-06T03:00:15.389Z,5.20
2022-09-06T03:03:17.747Z,8.07
2022-09-06T03:06:20.267Z,2.42
2022-09-06T03:09:22.598Z,7.05
2022-09-06T03:12:25.079Z,10.32
2022-09-06T03:15:27.110Z,5.47
2022-09-06T03:18:31.063Z,6.22
2022-09-06T03:21:33.245Z,3.55
2022-09-06T03:24:35.517Z,5.22
2022-09-06T03:27:38.492Z,9.30
2022-09-06T03:30:44.798Z,6.03
2022-09-06T03:33:47.026Z,1.77
2022-09-06T03:36:49.401Z,2.92
2022-09-06T03:39:51.724Z,3.78
2022-09-06T03:42:54.314Z,4.65
2022-09-06T03:45:58.045Z,1.85
2022-09-06T03:49:02.096Z,5.93
2022-09-06T03:52:04.494Z,1.92
2022-09-06T03:55:08.064Z,3.00
2022-09-06T03:58:10.095Z,3.70
2022-09-06T04:01:13.720Z,1.83
2022-09-06T04:04:16.489Z,3.97
2022-09-06T04:07:19.005Z,2.50
2022-09-06T04:10:21.250Z,2.78
2022-09-06T04:13:25.577Z,2.28
2022-09-06T04:16:28.006Z,4.45
2022-09-06T04:19:30.369Z,3.45
2022-09-06T04:22:32.748Z,2.05
2022-09-06T04:25:35.354Z,2.92
2022-09-06T04:28:37.625Z,1.35
2022-09-06T04:31:40.320Z,4.40
2022-09-06T04:34:42.363Z,2.30
2022-09-06T04:37:45.180Z,3.42
2022-09-06T04:40:47.455Z,2.45
2022-09-06T04:43:55.888Z,2.28
2022-09-06T04:47:15.604Z,2.20
2022-09-06T04:50:18.979Z,2.33
2022-09-06T04:53:23.877Z,3.28
2022-09-06T04:56:27.122Z,2.13
2022-09-06T04:59:29.336Z,2.80
2022-09-06T05:02:32.015Z,1.00
2022-09-06T05:05:34.243Z,2.17
2022-09-06T05:08:39.365Z,2.30
2022-09-06T05:11:41.855Z,1.63
2022-09-06T05:14:44.338Z,2.88
2022-09-06T05:17:46.749Z,1.70
2022-09-06T05:20:53.929Z,1.77
2022-09-06T05:23:58.633Z,3.97
2022-09-06T05:27:04.060Z,2.35
2022-09-06T05:30:06.649Z,1.83
2022-09-06T05:33:10.740Z,2.65
2022-09-06T05:36:13.236Z,2.85
2022-09-06T05:39:15.896Z,3.42
2022-09-06T05:42:19.554Z,1.83
2022-09-06T05:48:24.473Z,2.10
2022-09-06T05:51:27.350Z,4.07
2022-09-06T05:54:29.478Z,4.07
2022-09-06T05:57:32.198Z,3.97
2022-09-06T06:00:34.989Z,8.07
2022-09-06T06:03:37.850Z,1.77
2022-09-06T06:06:40.091Z,2.28
2022-09-06T06:09:42.826Z,2.88
2022-09-06T06:12:45.371Z,1.77
2022-09-06T06:15:47.892Z,5.22
2022-09-06T06:18:52.526Z,3.63
2022-09-06T06:21:56.546Z,3.72
2022-09-06T06:24:59.756Z,3.30
2022-09-06T06:28:02.788Z,7.32
2022-09-06T06:31:06.819Z,3.55
2022-09-06T06:34:09.972Z,4.85
2022-09-06T06:37:12.099Z,4.53
2022-09-06T06:40:14.746Z,5.70
2022-09-06T06:43:17.862Z,4.00
2022-09-06T06:46:25.521Z,6.93
2022-09-06T06:49:28.871Z,4.78
2022-09-06T06:52:32.101Z,5.63
2022-09-06T06:55:34.729Z,6.68
2022-09-06T06:58:37.071Z,2.80
2022-09-06T07:01:40.431Z,6.47
2022-09-06T07:07:45.771Z,3.65
2022-09-06T07:10:48.107Z,3.70
2022-09-06T07:13:50.681Z,3.70
2022-09-06T07:16:58.603Z,2.83
2022-09-06T07:20:16.504Z,2.60
2022-09-06T07:26:42.254Z,6.50
2022-09-06T07:29:44.769Z,2.92
2022-09-06T07:32:47.010Z,3.85
2022-09-06T07:36:01.325Z,2.63
2022-09-06T07:39:04.061Z,4.78
2022-09-06T07:42:06.783Z,4.10
2022-09-06T07:45:09.810Z,9.23
2022-09-06T07:51:18.950Z,4.18
2022-09-06T07:54:30.966Z,5.15
2022-09-06T07:57:33.799Z,6.43
2022-09-06T08:00:39.040Z,4.38
2022-09-06T08:03:41.415Z,5.18
2022-09-06T08:10:17.060Z,3.53
2022-09-06T08:13:20.890Z,2.70
2022-09-06T08:16:25.445Z,3.67
2022-09-06T08:19:28.291Z,6.50
2022-09-06T08:22:34.267Z,3.97
2022-09-06T08:25:36.673Z,5.72
2022-09-06T08:28:39.054Z,9.10
2022-09-06T08:31:43.589Z,6.00
2022-09-06T08:34:45.895Z,5.57
2022-09-06T08:37:48.498Z,4.78
2022-09-06T08:40:52.739Z,7.60
2022-09-06T08:47:21.747Z,7.43
2022-09-06T08:50:26.828Z,5.35
2022-09-06T08:53:29.980Z,2.75
2022-09-06T08:56:39.942Z,1.70
2022-09-06T08:59:43.270Z,4.50
2022-09-06T09:02:52.068Z,2.35
2022-09-06T09:05:54.971Z,4.93
2022-09-06T09:09:06.037Z,3.63
2022-09-06T09:12:12.408Z,3.00
2022-09-06T09:15:19.043Z,2.78
2022-09-06T09:18:26.814Z,1.98
2022-09-06T09:21:34.763Z,3.35
2022-09-06T09:24:37.835Z,2.28
2022-09-06T09:27:41.187Z,3.22
2022-09-06T09:31:02.035Z,2.67
2022-09-06T09:34:07.694Z,2.92
2022-09-06T09:41:06.031Z,2.20
2022-09-06T09:44:16.479Z,4.60
2022-09-06T09:47:30.480Z,4.10
2022-09-06T09:50:35.614Z,2.72
2022-09-06T09:53:51.575Z,2.10
2022-09-06T09:56:54.125Z,4.10
2022-09-06T10:00:04.839Z,3.75
2022-09-06T10:03:19.242Z,4.30
2022-09-06T10:09:58.881Z,8.65
2022-09-06T10:13:22.032Z,9.43
2022-09-06T10:16:43.805Z,2.15
2022-09-06T10:19:54.343Z,6.18
2022-09-06T10:23:09.812Z,1.90
2022-09-06T10:26:37.137Z,3.10
2022-09-06T10:29:56.279Z,4.07
2022-09-06T10:33:42.384Z,2.93
2022-09-06T10:36:57.999Z,3.85
2022-09-06T10:40:28.043Z,3.03
2022-09-06T10:43:44.947Z,2.03
2022-09-06T10:46:50.935Z,4.00
2022-09-06T10:49:59.099Z,2.42
2022-09-06T10:53:13.139Z,3.35
2022-09-06T10:56:27.748Z,4.47
2022-09-06T10:59:39.259Z,3.90
2022-09-06T11:06:31.145Z,5.75
2022-09-06T11:09:45.198Z,9.90
2022-09-06T11:13:18.691Z,3.30
2022-09-06T11:16:39.417Z,4.40
2022-09-06T11:20:04.044Z,4.13
2022-09-06T11:23:34.940Z,2.92
2022-09-06T11:26:59.390Z,4.75
2022-09-06T11:30:08.583Z,10.88
2022-09-06T11:33:19.688Z,5.10
2022-09-06T11:36:44.904Z,7.80
2022-09-06T11:40:30.241Z,5.10
2022-09-06T11:46:54.966Z,7.40
2022-09-06T11:49:57.272Z,4.65
2022-09-06T11:53:15.840Z,4.13
2022-09-06T11:56:35.654Z,7.72
2022-09-06T12:00:07.161Z,4.72
2022-09-06T12:07:04.047Z,8.75
2022-09-06T12:10:31.058Z,8.60
2022-09-06T12:13:48.047Z,9.25
2022-09-06T12:16:56.946Z,7.38
2022-09-06T12:20:07.229Z,7.43
2022-09-06T12:23:31.005Z,5.70
2022-09-06T12:27:08.521Z,7.20
2022-09-06T12:30:14.589Z,6.28
2022-09-06T12:33:33.065Z,5.03
2022-09-06T12:36:36.430Z,5.78
2022-09-06T12:39:40.567Z,7.10
2022-09-06T12:42:46.770Z,8.73
2022-09-06T12:45:52.030Z,6.25
2022-09-06T12:49:02.321Z,4.88
2022-09-06T12:52:13.662Z,7.00
2022-09-06T12:55:24.146Z,4.82
2022-09-06T12:58:32.572Z,4.53
2022-09-06T13:01:37.534Z,5.22
2022-09-06T13:05:08.214Z,3.00
2022-09-06T13:08:19.174Z,7.03
2022-09-06T13:11:46.351Z,8.30
2022-09-06T13:14:54.222Z,4.05
2022-09-06T13:18:24.188Z,3.25
2022-09-06T13:21:33.726Z,2.78
2022-09-06T13:24:36.975Z,3.20
2022-09-06T13:27:46.537Z,5.72
2022-09-06T13:31:05.411Z,4.07
2022-09-06T13:34:08.863Z,7.13
2022-09-06T13:37:12.392Z,3.47
2022-09-06T13:40:53.875Z,3.58
2022-09-06T13:44:17.987Z,3.45
2022-09-06T13:47:20.910Z,10.32
2022-09-06T13:50:28.335Z,3.22
2022-09-06T13:53:32.144Z,2.97
2022-09-06T13:56:35.660Z,4.70
2022-09-06T13:59:38.527Z,8.02
2022-09-06T14:02:42.216Z,2.65
2022-09-06T14:05:46.281Z,4.03
2022-09-06T14:09:06.254Z,6.45
2022-09-06T14:12:12.327Z,7.47
2022-09-06T14:15:16.490Z,5.72
2022-09-06T14:18:19.448Z,3.35
2022-09-06T14:21:21.945Z,5.40
2022-09-06T14:24:24.298Z,4.38
2022-09-06T14:27:27.954Z,5.50
2022-09-06T14:30:33.318Z,3.30
2022-09-06T14:33:36.684Z,3.55
2022-09-06T14:36:39.740Z,2.83
2022-09-06T14:39:43.095Z,7.97
2022-09-06T14:42:50.405Z,4.05
2022-09-06T14:45:53.410Z,4.60
2022-09-06T14:49:04.384Z,3.25
2022-09-06T14:52:07.833Z,4.75
2022-09-06T14:55:10.603Z,8.63
2022-09-06T14:58:15.554Z,6.63
2022-09-06T15:01:24.599Z,8.20
2022-09-06T15:04:30.038Z,10.43
2022-09-06T15:07:33.245Z,7.15
2022-09-06T15:10:36.459Z,10.57
2022-09-06T15:13:44.508Z,8.15
2022-09-06T15:16:55.284Z,6.50
2022-09-06T15:19:59.102Z,4.80
2022-09-06T15:26:27.897Z,7.65
2022-09-06T15:29:32.005Z,3.93
2022-09-06T15:32:35.242Z,5.60
2022-09-06T15:35:42.202Z,3.63
2022-09-06T15:38:49.813Z,9.18
2022-09-06T15:41:57.168Z,5.75
2022-09-06T15:45:02.611Z,6.47
2022-09-06T15:48:07.359Z,4.03
2022-09-06T15:51:13.001Z,8.85
2022-09-06T15:54:40.574Z,5.82
2022-09-06T15:57:44.384Z,4.97
2022-09-06T16:00:51.075Z,4.45
2022-09-06T16:04:08.247Z,9.55
2022-09-06T16:07:13.847Z,4.68
2022-09-06T16:10:17.435Z,6.45
2022-09-06T16:13:21.248Z,5.10
2022-09-06T16:16:25.106Z,4.72
2022-09-06T16:19:27.565Z,5.57
2022-09-06T16:22:31.243Z,7.82
2022-09-06T16:25:35.466Z,4.20
2022-09-06T16:28:39.050Z,7.18
2022-09-06T16:31:43.160Z,10.70
2022-09-06T16:34:46.415Z,5.13
2022-09-06T16:37:49.619Z,4.68
2022-09-06T16:40:53.351Z,5.90
2022-09-06T16:43:57.365Z,4.28
2022-09-06T16:47:04.673Z,3.80
2022-09-06T16:50:07.497Z,5.25
2022-09-06T16:53:09.909Z,5.93
2022-09-06T16:56:16.314Z,3.45
2022-09-06T16:59:19.391Z,6.68
2022-09-06T17:02:24.467Z,5.38
2022-09-06T17:05:27.769Z,7.43
2022-09-06T17:08:33.680Z,6.70
2022-09-06T17:11:38.867Z,3.15
2022-09-06T17:14:41.709Z,3.00
2022-09-06T17:17:44.740Z,4.30
2022-09-06T17:21:08.274Z,6.33
2022-09-06T17:24:10.909Z,3.80
2022-09-06T17:27:13.574Z,3.90
2022-09-06T17:30:16.214Z,8.00
2022-09-06T17:33:21.832Z,4.87
2022-09-06T17:36:30.608Z,5.35
2022-09-06T17:39:33.911Z,9.80
2022-09-06T17:42:37.604Z,3.65
2022-09-06T17:45:47.257Z,5.68
2022-09-06T17:48:50.590Z,7.63
2022-09-06T17:51:53.848Z,6.75
2022-09-06T17:54:57.297Z,4.18
2022-09-06T17:58:06.857Z,5.35
2022-09-06T18:01:14.606Z,8.35
2022-09-06T18:04:19.484Z,5.85
2022-09-06T18:07:22.583Z,3.45
2022-09-06T18:10:25.656Z,4.27
2022-09-06T18:13:27.981Z,8.65
2022-09-06T18:16:35.352Z,4.30
2022-09-06T18:19:38.965Z,5.47
2022-09-06T18:22:45.294Z,6.60
2022-09-06T18:26:01.633Z,4.60
2022-09-06T18:29:13.234Z,8.32
2022-09-06T18:32:16.676Z,5.60
2022-09-06T18:35:19.806Z,6.07
2022-09-06T18:38:28.086Z,6.65
2022-09-06T18:41:54.835Z,7.22
2022-09-06T18:44:59.767Z,4.22
2022-09-06T18:48:03.011Z,2.72
2022-09-06T18:51:17.181Z,4.20
2022-09-06T18:54:27.527Z,11.35
2022-09-06T18:57:32.074Z,6.32
2022-09-06T19:00:38.321Z,6.13
2022-09-06T19:03:43.483Z,6.32
2022-09-06T19:06:48.532Z,6.60
2022-09-06T19:09:53.157Z,9.95
2022-09-06T19:13:01.510Z,6.93
2022-09-06T19:16:08.561Z,4.60
2022-09-06T19:19:15.006Z,8.32
2022-09-06T19:22:19.728Z,6.25
2022-09-06T19:25:27.177Z,6.72
2022-09-06T19:28:34.238Z,7.50
2022-09-06T19:31:40.532Z,8.40
2022-09-06T19:34:44.470Z,5.13
2022-09-06T19:37:50.266Z,8.52
2022-09-06T19:40:55.250Z,7.80
2022-09-06T19:50:11.109Z,5.78
2022-09-06T19:53:17.481Z,7.75
2022-09-06T19:56:35.173Z,3.70
2022-09-06T19:59:41.759Z,3.25
2022-09-06T20:02:46.083Z,5.47
2022-09-06T20:05:51.512Z,4.70
2022-09-06T20:09:03.313Z,8.77
2022-09-06T20:12:09.099Z,5.72
2022-09-06T20:15:14.986Z,5.05
2022-09-06T20:18:22.733Z,3.90
2022-09-06T20:21:30.187Z,5.72
2022-09-06T20:24:37.065Z,4.90
2022-09-06T20:27:44.696Z,4.03
2022-09-06T20:30:53.711Z,4.40
2022-09-06T20:34:08.556Z,3.25
2022-09-06T20:37:16.391Z,7.25
2022-09-06T20:40:23.140Z,6.53
2022-09-06T20:43:29.246Z,5.20
2022-09-06T20:46:37.602Z,7.13
2022-09-06T20:49:44.429Z,3.90
2022-09-06T20:52:54.533Z,8.68
2022-09-06T20:56:01.206Z,5.78
2022-09-06T20:59:08.315Z,4.43
2022-09-06T21:02:15.126Z,2.97
2022-09-06T21:05:24.741Z,4.85
2022-09-06T21:08:34.104Z,5.30
2022-09-06T21:11:42.668Z,4.20
2022-09-06T21:14:47.508Z,3.97
2022-09-06T21:17:51.280Z,5.15
2022-09-06T21:21:05.503Z,7.55
2022-09-06T21:24:09.070Z,5.27
2022-09-06T21:27:12.827Z,6.88
2022-09-06T21:30:18.294Z,5.40
2022-09-06T21:36:33.258Z,5.57
2022-09-06T21:39:35.831Z,4.72
2022-09-06T21:42:40.352Z,6.35
2022-09-06T21:45:44.937Z,2.40
2022-09-06T21:48:49.943Z,4.22
2022-09-06T21:54:54.911Z,7.38
2022-09-06T21:57:57.151Z,8.02
2022-09-06T22:01:04.967Z,8.18
2022-09-06T22:04:07.760Z,3.35
2022-09-06T22:07:12.273Z,9.45
2022-09-06T22:10:14.844Z,7.60
2022-09-06T22:13:19.667Z,6.70
2022-09-06T22:16:22.985Z,7.13
2022-09-06T22:19:25.994Z,9.15
2022-09-06T22:22:34.123Z,8.85
2022-09-06T22:25:36.987Z,10.88
2022-09-06T22:28:40.731Z,11.25
2022-09-06T22:31:43.897Z,6.07
2022-09-06T22:34:46.257Z,11.43
2022-09-06T22:37:50.003Z,8.95
2022-09-06T22:40:52.102Z,7.45
2022-09-06T22:43:54.924Z,4.88
2022-09-06T22:46:57.995Z,9.02
2022-09-06T22:50:00.481Z,9.90
2022-09-06T22:53:02.990Z,13.77
2022-09-06T22:56:07.271Z,12.35
2022-09-06T22:59:09.712Z,11.13
2022-09-06T23:02:12.722Z,18.25
2022-09-06T23:05:14.988Z,13.13
2022-09-06T23:08:17.482Z,15.93
2022-09-06T23:11:21.270Z,18.48
2022-09-06T23:14:23.914Z,15.65
2022-09-06T23:17:28.106Z,16.48
2022-09-06T23:23:33.948Z,17.25
2022-09-06T23:26:37.568Z,19.30
2022-09-06T23:29:41.282Z,22.23
2022-09-06T23:32:43.536Z,11.57
2022-09-06T23:35:46.290Z,12.00
2022-09-06T23:38:48.965Z,10.85
2022-09-06T23:41:50.958Z,11.07
2022-09-06T23:44:57.756Z,10.40
2022-09-06T23:47:59.914Z,8.32
2022-09-06T23:51:02.274Z,10.77
2022-09-06T23:54:05.882Z,8.55
2022-09-06T23:57:08.429Z,8.00
